sensor_id;sensor_type;location;lat;lon;timestamp;temperature;humidity
47590;DHT22;33316;52.298;9.056;2023-07-29T00:00:06;21.90;85.40
47590;DHT22;33316;52.298;9.056;2023-07-29T00:02:38;21.90;85.50
47590;DHT22;33316;52.298;9.056;2023-07-29T00:05:05;21.80;85.50
47590;DHT22;33316;52.298;9.056;2023-07-29T00:07:33;21.80;85.80
47590;DHT22;33316;52.298;9.056;2023-07-29T00:10:00;21.80;85.80
47590;DHT22;33316;52.298;9.056;2023-07-29T00:12:26;21.70;86.00
47590;DHT22;33316;52.298;9.056;2023-07-29T00:14:55;21.70;86.20
47590;DHT22;33316;52.298;9.056;2023-07-29T00:17:22;21.60;86.30
47590;DHT22;33316;52.298;9.056;2023-07-29T00:19:49;21.60;86.60
47590;DHT22;33316;52.298;9.056;2023-07-29T00:22:16;21.60;86.70
47590;DHT22;33316;52.298;9.056;2023-07-29T00:24:43;21.60;86.90
47590;DHT22;33316;52.298;9.056;2023-07-29T00:27:09;21.60;87.10
47590;DHT22;33316;52.298;9.056;2023-07-29T00:29:36;21.50;87.10
47590;DHT22;33316;52.298;9.056;2023-07-29T00:32:06;21.50;87.10
47590;DHT22;33316;52.298;9.056;2023-07-29T00:34:33;21.60;87.20
47590;DHT22;33316;52.298;9.056;2023-07-29T00:37:00;21.50;87.20
47590;DHT22;33316;52.298;9.056;2023-07-29T00:39:27;21.50;87.10
47590;DHT22;33316;52.298;9.056;2023-07-29T00:41:54;21.50;87.10
47590;DHT22;33316;52.298;9.056;2023-07-29T00:44:21;21.50;87.20
47590;DHT22;33316;52.298;9.056;2023-07-29T00:46:50;21.50;87.20
47590;DHT22;33316;52.298;9.056;2023-07-29T00:49:21;21.50;87.20
47590;DHT22;33316;52.298;9.056;2023-07-29T00:51:48;21.50;87.30
47590;DHT22;33316;52.298;9.056;2023-07-29T00:54:15;21.50;87.40
47590;DHT22;33316;52.298;9.056;2023-07-29T00:56:42;21.50;87.50
47590;DHT22;33316;52.298;9.056;2023-07-29T00:59:09;21.50;87.60
47590;DHT22;33316;52.298;9.056;2023-07-29T01:01:36;21.50;87.60
47590;DHT22;33316;52.298;9.056;2023-07-29T01:04:04;21.50;87.70
47590;DHT22;33316;52.298;9.056;2023-07-29T01:06:40;21.50;87.80
47590;DHT22;33316;52.298;9.056;2023-07-29T01:09:14;21.50;87.90
47590;DHT22;33316;52.298;9.056;2023-07-29T01:11:52;21.50;87.90
47590;DHT22;33316;52.298;9.056;2023-07-29T01:14:26;21.50;87.90
47590;DHT22;33316;52.298;9.056;2023-07-29T01:16:59;21.50;87.90
47590;DHT22;33316;52.298;9.056;2023-07-29T01:19:42;21.50;87.90
47590;DHT22;33316;52.298;9.056;2023-07-29T01:22:13;21.50;87.90
47590;DHT22;33316;52.298;9.056;2023-07-29T01:24:42;21.50;87.80
47590;DHT22;33316;52.298;9.056;2023-07-29T01:27:09;21.50;87.80
47590;DHT22;33316;52.298;9.056;2023-07-29T01:29:36;21.50;87.80
47590;DHT22;33316;52.298;9.056;2023-07-29T01:32:09;21.50;87.80
47590;DHT22;33316;52.298;9.056;2023-07-29T01:34:43;21.50;87.80
47590;DHT22;33316;52.298;9.056;2023-07-29T01:37:16;21.50;87.80
47590;DHT22;33316;52.298;9.056;2023-07-29T01:39:49;21.60;87.80
47590;DHT22;33316;52.298;9.056;2023-07-29T01:42:17;21.50;87.80
47590;DHT22;33316;52.298;9.056;2023-07-29T01:44:44;21.50;87.80
47590;DHT22;33316;52.298;9.056;2023-07-29T01:47:11;21.50;87.80
47590;DHT22;33316;52.298;9.056;2023-07-29T01:49:38;21.50;87.90
47590;DHT22;33316;52.298;9.056;2023-07-29T01:52:06;21.60;87.90
47590;DHT22;33316;52.298;9.056;2023-07-29T01:54:33;21.50;87.90
47590;DHT22;33316;52.298;9.056;2023-07-29T01:57:01;21.50;88.00
47590;DHT22;33316;52.298;9.056;2023-07-29T01:59:28;21.50;88.00
47590;DHT22;33316;52.298;9.056;2023-07-29T02:01:55;21.40;88.10
47590;DHT22;33316;52.298;9.056;2023-07-29T02:04:22;21.40;88.20
47590;DHT22;33316;52.298;9.056;2023-07-29T02:06:49;21.40;88.20
47590;DHT22;33316;52.298;9.056;2023-07-29T02:09:16;21.40;88.20
47590;DHT22;33316;52.298;9.056;2023-07-29T02:11:43;21.40;88.30
47590;DHT22;33316;52.298;9.056;2023-07-29T02:14:11;21.40;88.30
47590;DHT22;33316;52.298;9.056;2023-07-29T02:16:38;21.40;88.30
47590;DHT22;33316;52.298;9.056;2023-07-29T02:19:05;21.40;88.20
47590;DHT22;33316;52.298;9.056;2023-07-29T02:21:32;21.40;88.30
47590;DHT22;33316;52.298;9.056;2023-07-29T02:23:59;21.40;88.30
47590;DHT22;33316;52.298;9.056;2023-07-29T02:26:26;21.40;88.40
47590;DHT22;33316;52.298;9.056;2023-07-29T02:28:53;21.40;88.30
47590;DHT22;33316;52.298;9.056;2023-07-29T02:31:23;21.40;88.40
47590;DHT22;33316;52.298;9.056;2023-07-29T02:33:51;21.40;88.50
47590;DHT22;33316;52.298;9.056;2023-07-29T02:36:19;21.40;88.50
47590;DHT22;33316;52.298;9.056;2023-07-29T02:38:46;21.40;88.40
47590;DHT22;33316;52.298;9.056;2023-07-29T02:41:14;21.40;88.40
47590;DHT22;33316;52.298;9.056;2023-07-29T02:43:42;21.40;88.30
47590;DHT22;33316;52.298;9.056;2023-07-29T02:46:09;21.40;88.30
47590;DHT22;33316;52.298;9.056;2023-07-29T02:48:38;21.40;88.30
47590;DHT22;33316;52.298;9.056;2023-07-29T02:51:05;21.40;88.30
47590;DHT22;33316;52.298;9.056;2023-07-29T02:53:32;21.40;88.30
47590;DHT22;33316;52.298;9.056;2023-07-29T02:55:58;21.40;88.30
47590;DHT22;33316;52.298;9.056;2023-07-29T02:58:25;21.40;88.30
47590;DHT22;33316;52.298;9.056;2023-07-29T03:00:52;21.40;88.20
47590;DHT22;33316;52.298;9.056;2023-07-29T03:03:19;21.40;88.30
47590;DHT22;33316;52.298;9.056;2023-07-29T03:05:47;21.40;88.20
47590;DHT22;33316;52.298;9.056;2023-07-29T03:08:15;21.40;88.20
47590;DHT22;33316;52.298;9.056;2023-07-29T03:10:41;21.40;88.30
47590;DHT22;33316;52.298;9.056;2023-07-29T03:13:08;21.40;88.20
47590;DHT22;33316;52.298;9.056;2023-07-29T03:15:35;21.40;88.30
47590;DHT22;33316;52.298;9.056;2023-07-29T03:18:03;21.40;88.30
47590;DHT22;33316;52.298;9.056;2023-07-29T03:20:30;21.40;88.30
47590;DHT22;33316;52.298;9.056;2023-07-29T03:22:59;21.40;88.30
47590;DHT22;33316;52.298;9.056;2023-07-29T03:25:26;21.40;88.30
47590;DHT22;33316;52.298;9.056;2023-07-29T03:27:54;21.40;88.40
47590;DHT22;33316;52.298;9.056;2023-07-29T03:30:22;21.40;88.40
47590;DHT22;33316;52.298;9.056;2023-07-29T03:32:50;21.40;88.40
47590;DHT22;33316;52.298;9.056;2023-07-29T03:35:17;21.40;88.50
47590;DHT22;33316;52.298;9.056;2023-07-29T03:37:43;21.40;88.60
47590;DHT22;33316;52.298;9.056;2023-07-29T03:40:12;21.40;88.60
47590;DHT22;33316;52.298;9.056;2023-07-29T03:42:39;21.40;88.70
47590;DHT22;33316;52.298;9.056;2023-07-29T03:45:06;21.30;88.70
47590;DHT22;33316;52.298;9.056;2023-07-29T03:47:33;21.30;88.80
47590;DHT22;33316;52.298;9.056;2023-07-29T03:50:00;21.30;88.80
47590;DHT22;33316;52.298;9.056;2023-07-29T03:52:27;21.30;88.80
47590;DHT22;33316;52.298;9.056;2023-07-29T03:54:54;21.30;88.80
47590;DHT22;33316;52.298;9.056;2023-07-29T03:57:23;21.30;88.90
47590;DHT22;33316;52.298;9.056;2023-07-29T03:59:49;21.30;89.00
47590;DHT22;33316;52.298;9.056;2023-07-29T04:02:16;21.30;88.90
47590;DHT22;33316;52.298;9.056;2023-07-29T04:04:43;21.30;88.90
47590;DHT22;33316;52.298;9.056;2023-07-29T04:07:13;21.30;88.90
47590;DHT22;33316;52.298;9.056;2023-07-29T04:09:40;21.30;88.90
47590;DHT22;33316;52.298;9.056;2023-07-29T04:12:09;21.30;88.90
47590;DHT22;33316;52.298;9.056;2023-07-29T04:14:37;21.20;88.90
47590;DHT22;33316;52.298;9.056;2023-07-29T04:17:04;21.20;89.00
47590;DHT22;33316;52.298;9.056;2023-07-29T04:19:32;21.20;89.00
47590;DHT22;33316;52.298;9.056;2023-07-29T04:21:59;21.20;89.00
47590;DHT22;33316;52.298;9.056;2023-07-29T04:24:25;21.20;88.90
47590;DHT22;33316;52.298;9.056;2023-07-29T04:26:52;21.20;88.80
47590;DHT22;33316;52.298;9.056;2023-07-29T04:29:19;21.20;88.60
47590;DHT22;33316;52.298;9.056;2023-07-29T04:31:47;21.20;88.60
47590;DHT22;33316;52.298;9.056;2023-07-29T04:34:14;21.20;88.50
47590;DHT22;33316;52.298;9.056;2023-07-29T04:36:41;21.20;88.50
47590;DHT22;33316;52.298;9.056;2023-07-29T04:39:10;21.30;88.60
47590;DHT22;33316;52.298;9.056;2023-07-29T04:41:36;21.30;88.50
47590;DHT22;33316;52.298;9.056;2023-07-29T04:44:03;21.20;88.50
47590;DHT22;33316;52.298;9.056;2023-07-29T04:46:32;21.20;88.50
47590;DHT22;33316;52.298;9.056;2023-07-29T04:49:00;21.20;88.50
47590;DHT22;33316;52.298;9.056;2023-07-29T04:51:28;21.20;88.50
47590;DHT22;33316;52.298;9.056;2023-07-29T04:53:55;21.20;88.60
47590;DHT22;33316;52.298;9.056;2023-07-29T04:56:22;21.20;88.70
47590;DHT22;33316;52.298;9.056;2023-07-29T04:58:49;21.20;88.80
47590;DHT22;33316;52.298;9.056;2023-07-29T05:01:16;21.20;88.80
47590;DHT22;33316;52.298;9.056;2023-07-29T05:03:44;21.30;88.80
47590;DHT22;33316;52.298;9.056;2023-07-29T05:06:13;21.30;88.80
47590;DHT22;33316;52.298;9.056;2023-07-29T05:08:40;21.30;88.80
47590;DHT22;33316;52.298;9.056;2023-07-29T05:11:07;21.30;88.90
47590;DHT22;33316;52.298;9.056;2023-07-29T05:13:33;21.30;89.00
47590;DHT22;33316;52.298;9.056;2023-07-29T05:16:01;21.30;89.10
47590;DHT22;33316;52.298;9.056;2023-07-29T05:18:28;21.30;89.10
47590;DHT22;33316;52.298;9.056;2023-07-29T05:20:55;21.30;89.20
47590;DHT22;33316;52.298;9.056;2023-07-29T05:23:23;21.30;89.30
47590;DHT22;33316;52.298;9.056;2023-07-29T05:25:50;21.20;89.20
47590;DHT22;33316;52.298;9.056;2023-07-29T05:28:17;21.20;89.30
47590;DHT22;33316;52.298;9.056;2023-07-29T05:30:44;21.20;89.40
47590;DHT22;33316;52.298;9.056;2023-07-29T05:33:10;21.20;89.50
47590;DHT22;33316;52.298;9.056;2023-07-29T05:35:38;21.20;89.50
47590;DHT22;33316;52.298;9.056;2023-07-29T05:38:06;21.20;89.60
47590;DHT22;33316;52.298;9.056;2023-07-29T05:40:35;21.10;89.60
47590;DHT22;33316;52.298;9.056;2023-07-29T05:43:01;21.10;89.70
47590;DHT22;33316;52.298;9.056;2023-07-29T05:45:28;21.20;89.80
47590;DHT22;33316;52.298;9.056;2023-07-29T05:47:56;21.20;89.80
47590;DHT22;33316;52.298;9.056;2023-07-29T05:50:23;21.20;89.80
47590;DHT22;33316;52.298;9.056;2023-07-29T05:52:50;21.20;89.80
47590;DHT22;33316;52.298;9.056;2023-07-29T05:55:16;21.20;89.80
47590;DHT22;33316;52.298;9.056;2023-07-29T05:57:45;21.20;89.80
47590;DHT22;33316;52.298;9.056;2023-07-29T06:00:12;21.20;89.80
47590;DHT22;33316;52.298;9.056;2023-07-29T06:02:39;21.30;89.90
47590;DHT22;33316;52.298;9.056;2023-07-29T06:05:08;21.20;89.80
47590;DHT22;33316;52.298;9.056;2023-07-29T06:07:35;21.20;89.80
47590;DHT22;33316;52.298;9.056;2023-07-29T06:10:02;21.20;89.90
47590;DHT22;33316;52.298;9.056;2023-07-29T06:12:28;21.30;90.00
47590;DHT22;33316;52.298;9.056;2023-07-29T06:14:57;21.30;90.00
47590;DHT22;33316;52.298;9.056;2023-07-29T06:17:24;21.30;90.00
47590;DHT22;33316;52.298;9.056;2023-07-29T06:19:51;21.30;90.00
47590;DHT22;33316;52.298;9.056;2023-07-29T06:22:17;21.30;90.00
47590;DHT22;33316;52.298;9.056;2023-07-29T06:24:44;21.30;90.00
47590;DHT22;33316;52.298;9.056;2023-07-29T06:27:11;21.40;90.10
47590;DHT22;33316;52.298;9.056;2023-07-29T06:29:38;21.40;90.10
47590;DHT22;33316;52.298;9.056;2023-07-29T06:32:07;21.40;90.10
47590;DHT22;33316;52.298;9.056;2023-07-29T06:34:33;21.40;90.20
47590;DHT22;33316;52.298;9.056;2023-07-29T06:37:00;21.40;90.20
47590;DHT22;33316;52.298;9.056;2023-07-29T06:39:27;21.40;90.20
47590;DHT22;33316;52.298;9.056;2023-07-29T06:41:54;21.40;90.20
47590;DHT22;33316;52.298;9.056;2023-07-29T06:44:21;21.40;90.20
47590;DHT22;33316;52.298;9.056;2023-07-29T06:46:48;21.40;90.20
47590;DHT22;33316;52.298;9.056;2023-07-29T06:49:16;21.40;90.20
47590;DHT22;33316;52.298;9.056;2023-07-29T06:51:43;21.50;90.20
47590;DHT22;33316;52.298;9.056;2023-07-29T06:54:09;21.50;90.10
47590;DHT22;33316;52.298;9.056;2023-07-29T06:56:36;21.50;90.10
47590;DHT22;33316;52.298;9.056;2023-07-29T06:59:03;21.50;90.10
47590;DHT22;33316;52.298;9.056;2023-07-29T07:01:30;21.50;90.00
47590;DHT22;33316;52.298;9.056;2023-07-29T07:03:57;21.60;90.10
47590;DHT22;33316;52.298;9.056;2023-07-29T07:06:25;21.60;90.10
47590;DHT22;33316;52.298;9.056;2023-07-29T07:08:52;21.60;90.00
47590;DHT22;33316;52.298;9.056;2023-07-29T07:11:19;21.60;90.10
47590;DHT22;33316;52.298;9.056;2023-07-29T07:13:46;21.70;90.10
47590;DHT22;33316;52.298;9.056;2023-07-29T07:16:13;21.70;90.10
47590;DHT22;33316;52.298;9.056;2023-07-29T07:18:40;21.80;90.00
47590;DHT22;33316;52.298;9.056;2023-07-29T07:21:07;21.80;89.90
47590;DHT22;33316;52.298;9.056;2023-07-29T07:23:35;21.90;89.80
47590;DHT22;33316;52.298;9.056;2023-07-29T07:26:02;21.90;89.80
47590;DHT22;33316;52.298;9.056;2023-07-29T07:28:29;21.90;89.60
47590;DHT22;33316;52.298;9.056;2023-07-29T07:30:55;22.00;89.50
47590;DHT22;33316;52.298;9.056;2023-07-29T07:33:23;22.00;89.40
47590;DHT22;33316;52.298;9.056;2023-07-29T07:35:50;22.10;89.20
47590;DHT22;33316;52.298;9.056;2023-07-29T07:38:16;22.10;89.20
47590;DHT22;33316;52.298;9.056;2023-07-29T07:40:52;22.10;89.10
47590;DHT22;33316;52.298;9.056;2023-07-29T07:43:19;22.10;89.20
47590;DHT22;33316;52.298;9.056;2023-07-29T07:45:46;22.10;89.10
47590;DHT22;33316;52.298;9.056;2023-07-29T07:48:13;22.20;89.30
47590;DHT22;33316;52.298;9.056;2023-07-29T07:50:42;22.20;89.20
47590;DHT22;33316;52.298;9.056;2023-07-29T07:53:09;22.20;89.30
47590;DHT22;33316;52.298;9.056;2023-07-29T07:55:35;22.20;89.40
47590;DHT22;33316;52.298;9.056;2023-07-29T07:58:03;22.10;89.20
47590;DHT22;33316;52.298;9.056;2023-07-29T08:00:30;22.20;89.30
47590;DHT22;33316;52.298;9.056;2023-07-29T08:02:57;22.20;89.20
47590;DHT22;33316;52.298;9.056;2023-07-29T08:05:24;22.20;89.20
47590;DHT22;33316;52.298;9.056;2023-07-29T08:07:51;22.30;89.40
47590;DHT22;33316;52.298;9.056;2023-07-29T08:10:17;22.30;90.00
47590;DHT22;33316;52.298;9.056;2023-07-29T08:12:44;22.40;89.30
47590;DHT22;33316;52.298;9.056;2023-07-29T08:15:12;22.40;89.30
47590;DHT22;33316;52.298;9.056;2023-07-29T08:17:39;22.40;89.30
47590;DHT22;33316;52.298;9.056;2023-07-29T08:20:07;22.50;89.30
47590;DHT22;33316;52.298;9.056;2023-07-29T08:22:35;22.60;89.30
47590;DHT22;33316;52.298;9.056;2023-07-29T08:25:02;22.70;89.00
47590;DHT22;33316;52.298;9.056;2023-07-29T08:27:29;22.70;88.60
47590;DHT22;33316;52.298;9.056;2023-07-29T08:29:56;22.80;88.30
47590;DHT22;33316;52.298;9.056;2023-07-29T08:32:24;22.80;88.10
47590;DHT22;33316;52.298;9.056;2023-07-29T08:34:51;22.80;87.90
47590;DHT22;33316;52.298;9.056;2023-07-29T08:37:17;22.80;87.80
47590;DHT22;33316;52.298;9.056;2023-07-29T08:39:44;22.80;87.60
47590;DHT22;33316;52.298;9.056;2023-07-29T08:42:11;22.80;87.60
47590;DHT22;33316;52.298;9.056;2023-07-29T08:44:41;22.70;87.40
47590;DHT22;33316;52.298;9.056;2023-07-29T08:47:08;22.80;87.40
47590;DHT22;33316;52.298;9.056;2023-07-29T08:49:36;22.80;87.30
47590;DHT22;33316;52.298;9.056;2023-07-29T08:52:04;22.80;86.90
47590;DHT22;33316;52.298;9.056;2023-07-29T08:54:31;22.80;86.60
47590;DHT22;33316;52.298;9.056;2023-07-29T08:56:58;22.90;86.40
47590;DHT22;33316;52.298;9.056;2023-07-29T08:59:26;22.90;86.00
47590;DHT22;33316;52.298;9.056;2023-07-29T09:01:55;22.90;85.40
47590;DHT22;33316;52.298;9.056;2023-07-29T09:04:23;22.90;85.20
47590;DHT22;33316;52.298;9.056;2023-07-29T09:06:53;22.90;84.50
47590;DHT22;33316;52.298;9.056;2023-07-29T09:09:21;23.00;84.20
47590;DHT22;33316;52.298;9.056;2023-07-29T09:11:48;23.00;83.80
47590;DHT22;33316;52.298;9.056;2023-07-29T09:14:15;23.10;83.90
47590;DHT22;33316;52.298;9.056;2023-07-29T09:16:43;23.20;83.50
47590;DHT22;33316;52.298;9.056;2023-07-29T09:19:10;23.20;82.90
47590;DHT22;33316;52.298;9.056;2023-07-29T09:21:39;23.30;82.90
47590;DHT22;33316;52.298;9.056;2023-07-29T09:24:08;23.40;82.80
47590;DHT22;33316;52.298;9.056;2023-07-29T09:26:35;23.50;82.40
47590;DHT22;33316;52.298;9.056;2023-07-29T09:29:02;23.60;81.90
47590;DHT22;33316;52.298;9.056;2023-07-29T09:31:29;23.60;80.80
47590;DHT22;33316;52.298;9.056;2023-07-29T09:33:57;23.60;80.30
47590;DHT22;33316;52.298;9.056;2023-07-29T09:36:24;23.60;79.90
47590;DHT22;33316;52.298;9.056;2023-07-29T09:38:55;23.60;80.10
47590;DHT22;33316;52.298;9.056;2023-07-29T09:43:57;23.70;79.10
47590;DHT22;33316;52.298;9.056;2023-07-29T09:46:25;23.80;79.10
47590;DHT22;33316;52.298;9.056;2023-07-29T09:48:58;23.90;79.00
47590;DHT22;33316;52.298;9.056;2023-07-29T09:51:25;23.90;79.00
47590;DHT22;33316;52.298;9.056;2023-07-29T09:53:52;24.00;78.90
47590;DHT22;33316;52.298;9.056;2023-07-29T09:56:24;24.00;78.50
47590;DHT22;33316;52.298;9.056;2023-07-29T09:58:51;24.00;77.40
47590;DHT22;33316;52.298;9.056;2023-07-29T10:01:20;24.10;77.00
47590;DHT22;33316;52.298;9.056;2023-07-29T10:03:47;24.00;76.50
47590;DHT22;33316;52.298;9.056;2023-07-29T10:06:15;24.00;75.70
47590;DHT22;33316;52.298;9.056;2023-07-29T10:08:42;24.00;75.10
47590;DHT22;33316;52.298;9.056;2023-07-29T10:11:10;24.10;75.10
47590;DHT22;33316;52.298;9.056;2023-07-29T10:13:38;24.10;74.80
47590;DHT22;33316;52.298;9.056;2023-07-29T10:16:05;24.10;73.80
47590;DHT22;33316;52.298;9.056;2023-07-29T10:18:33;24.10;72.50
47590;DHT22;33316;52.298;9.056;2023-07-29T10:21:02;24.00;71.50
47590;DHT22;33316;52.298;9.056;2023-07-29T10:23:39;24.00;70.80
47590;DHT22;33316;52.298;9.056;2023-07-29T10:26:11;23.90;70.40
47590;DHT22;33316;52.298;9.056;2023-07-29T10:28:41;23.90;70.80
47590;DHT22;33316;52.298;9.056;2023-07-29T10:31:13;24.00;71.50
47590;DHT22;33316;52.298;9.056;2023-07-29T10:33:43;24.00;70.70
47590;DHT22;33316;52.298;9.056;2023-07-29T10:36:11;24.00;70.60
47590;DHT22;33316;52.298;9.056;2023-07-29T10:38:39;24.00;71.50
47590;DHT22;33316;52.298;9.056;2023-07-29T10:41:06;24.00;70.30
47590;DHT22;33316;52.298;9.056;2023-07-29T10:43:34;24.00;70.10
47590;DHT22;33316;52.298;9.056;2023-07-29T10:46:15;24.10;70.10
47590;DHT22;33316;52.298;9.056;2023-07-29T10:48:51;24.10;69.60
47590;DHT22;33316;52.298;9.056;2023-07-29T10:51:26;24.20;69.90
47590;DHT22;33316;52.298;9.056;2023-07-29T10:53:56;24.20;69.60
47590;DHT22;33316;52.298;9.056;2023-07-29T10:56:31;24.20;68.90
47590;DHT22;33316;52.298;9.056;2023-07-29T10:59:02;24.30;68.20
47590;DHT22;33316;52.298;9.056;2023-07-29T11:01:30;24.30;68.60
47590;DHT22;33316;52.298;9.056;2023-07-29T11:04:22;24.30;67.70
47590;DHT22;33316;52.298;9.056;2023-07-29T11:07:26;24.30;67.30
47590;DHT22;33316;52.298;9.056;2023-07-29T11:09:56;24.30;67.60
47590;DHT22;33316;52.298;9.056;2023-07-29T11:12:40;24.30;68.30
47590;DHT22;33316;52.298;9.056;2023-07-29T11:15:20;24.40;68.80
47590;DHT22;33316;52.298;9.056;2023-07-29T11:17:48;24.50;68.10
47590;DHT22;33316;52.298;9.056;2023-07-29T11:20:18;24.50;68.10
47590;DHT22;33316;52.298;9.056;2023-07-29T11:22:45;24.60;68.20
47590;DHT22;33316;52.298;9.056;2023-07-29T11:25:13;24.70;68.10
47590;DHT22;33316;52.298;9.056;2023-07-29T11:27:41;24.70;67.80
47590;DHT22;33316;52.298;9.056;2023-07-29T11:30:09;24.80;67.40
47590;DHT22;33316;52.298;9.056;2023-07-29T11:32:37;24.80;67.30
47590;DHT22;33316;52.298;9.056;2023-07-29T11:35:06;24.80;67.30
47590;DHT22;33316;52.298;9.056;2023-07-29T11:37:35;24.90;67.30
47590;DHT22;33316;52.298;9.056;2023-07-29T11:40:03;24.90;67.30
47590;DHT22;33316;52.298;9.056;2023-07-29T11:42:32;24.90;66.90
47590;DHT22;33316;52.298;9.056;2023-07-29T11:44:59;25.00;66.70
47590;DHT22;33316;52.298;9.056;2023-07-29T11:47:26;25.10;66.80
47590;DHT22;33316;52.298;9.056;2023-07-29T11:49:53;25.10;65.60
47590;DHT22;33316;52.298;9.056;2023-07-29T11:52:20;25.10;65.00
47590;DHT22;33316;52.298;9.056;2023-07-29T11:54:49;25.20;64.90
47590;DHT22;33316;52.298;9.056;2023-07-29T11:57:17;25.20;64.90
47590;DHT22;33316;52.298;9.056;2023-07-29T11:59:45;25.20;64.50
47590;DHT22;33316;52.298;9.056;2023-07-29T12:02:15;25.30;64.50
47590;DHT22;33316;52.298;9.056;2023-07-29T12:04:43;25.30;64.40
47590;DHT22;33316;52.298;9.056;2023-07-29T12:07:12;25.30;64.20
47590;DHT22;33316;52.298;9.056;2023-07-29T12:09:40;25.40;63.90
47590;DHT22;33316;52.298;9.056;2023-07-29T12:12:09;25.40;64.20
47590;DHT22;33316;52.298;9.056;2023-07-29T12:14:36;25.40;64.10
47590;DHT22;33316;52.298;9.056;2023-07-29T12:17:04;25.50;64.10
47590;DHT22;33316;52.298;9.056;2023-07-29T12:19:32;25.50;63.90
47590;DHT22;33316;52.298;9.056;2023-07-29T12:22:00;25.50;63.60
47590;DHT22;33316;52.298;9.056;2023-07-29T12:24:29;25.50;63.30
47590;DHT22;33316;52.298;9.056;2023-07-29T12:26:56;25.50;63.90
47590;DHT22;33316;52.298;9.056;2023-07-29T12:29:24;25.60;63.70
47590;DHT22;33316;52.298;9.056;2023-07-29T12:31:57;25.60;64.00
47590;DHT22;33316;52.298;9.056;2023-07-29T12:34:25;25.70;63.70
47590;DHT22;33316;52.298;9.056;2023-07-29T12:36:54;25.80;64.00
47590;DHT22;33316;52.298;9.056;2023-07-29T12:39:24;25.80;63.50
47590;DHT22;33316;52.298;9.056;2023-07-29T12:41:53;25.90;63.40
47590;DHT22;33316;52.298;9.056;2023-07-29T12:44:20;26.00;64.60
47590;DHT22;33316;52.298;9.056;2023-07-29T12:46:48;26.00;63.20
47590;DHT22;33316;52.298;9.056;2023-07-29T12:49:15;26.10;62.50
47590;DHT22;33316;52.298;9.056;2023-07-29T12:51:42;26.10;62.20
47590;DHT22;33316;52.298;9.056;2023-07-29T12:54:08;26.10;62.60
47590;DHT22;33316;52.298;9.056;2023-07-29T12:56:35;26.10;62.60
47590;DHT22;33316;52.298;9.056;2023-07-29T12:59:02;26.10;62.60
47590;DHT22;33316;52.298;9.056;2023-07-29T13:01:29;26.10;62.30
47590;DHT22;33316;52.298;9.056;2023-07-29T13:03:58;26.20;62.20
47590;DHT22;33316;52.298;9.056;2023-07-29T13:06:25;26.20;61.80
47590;DHT22;33316;52.298;9.056;2023-07-29T13:08:52;26.20;61.20
47590;DHT22;33316;52.298;9.056;2023-07-29T13:11:18;26.20;61.20
47590;DHT22;33316;52.298;9.056;2023-07-29T13:13:45;26.20;60.80
47590;DHT22;33316;52.298;9.056;2023-07-29T13:16:13;26.20;60.70
47590;DHT22;33316;52.298;9.056;2023-07-29T13:18:40;26.20;61.00
47590;DHT22;33316;52.298;9.056;2023-07-29T13:21:08;26.20;61.20
47590;DHT22;33316;52.298;9.056;2023-07-29T13:23:35;26.20;61.30
47590;DHT22;33316;52.298;9.056;2023-07-29T13:26:02;26.20;61.40
47590;DHT22;33316;52.298;9.056;2023-07-29T13:28:29;26.30;61.60
47590;DHT22;33316;52.298;9.056;2023-07-29T13:30:56;26.30;61.90
47590;DHT22;33316;52.298;9.056;2023-07-29T13:33:22;26.40;62.00
47590;DHT22;33316;52.298;9.056;2023-07-29T13:35:49;26.40;61.50
47590;DHT22;33316;52.298;9.056;2023-07-29T13:38:17;26.40;61.80
47590;DHT22;33316;52.298;9.056;2023-07-29T13:40:45;26.50;61.40
47590;DHT22;33316;52.298;9.056;2023-07-29T13:43:13;26.50;61.30
47590;DHT22;33316;52.298;9.056;2023-07-29T13:45:40;26.40;61.10
47590;DHT22;33316;52.298;9.056;2023-07-29T13:48:07;26.40;61.30
47590;DHT22;33316;52.298;9.056;2023-07-29T13:50:34;26.40;61.70
47590;DHT22;33316;52.298;9.056;2023-07-29T13:53:00;26.40;61.70
47590;DHT22;33316;52.298;9.056;2023-07-29T13:55:29;26.40;61.10
47590;DHT22;33316;52.298;9.056;2023-07-29T13:57:55;26.40;61.30
47590;DHT22;33316;52.298;9.056;2023-07-29T14:00:23;26.40;61.00
47590;DHT22;33316;52.298;9.056;2023-07-29T14:02:49;26.30;61.10
47590;DHT22;33316;52.298;9.056;2023-07-29T14:05:16;26.30;61.40
47590;DHT22;33316;52.298;9.056;2023-07-29T14:07:43;26.30;61.10
47590;DHT22;33316;52.298;9.056;2023-07-29T14:10:10;26.30;61.40
47590;DHT22;33316;52.298;9.056;2023-07-29T14:12:38;26.20;61.20
47590;DHT22;33316;52.298;9.056;2023-07-29T14:15:06;26.20;62.00
47590;DHT22;33316;52.298;9.056;2023-07-29T14:17:34;26.20;61.20
47590;DHT22;33316;52.298;9.056;2023-07-29T14:20:01;26.20;60.80
47590;DHT22;33316;52.298;9.056;2023-07-29T14:22:28;26.20;60.80
47590;DHT22;33316;52.298;9.056;2023-07-29T14:24:55;26.20;60.80
47590;DHT22;33316;52.298;9.056;2023-07-29T14:27:22;26.20;61.50
47590;DHT22;33316;52.298;9.056;2023-07-29T14:29:50;26.20;61.30
47590;DHT22;33316;52.298;9.056;2023-07-29T14:32:17;26.20;60.80
47590;DHT22;33316;52.298;9.056;2023-07-29T14:34:44;26.20;60.80
47590;DHT22;33316;52.298;9.056;2023-07-29T14:37:10;26.20;60.80
47590;DHT22;33316;52.298;9.056;2023-07-29T14:39:37;26.10;60.70
47590;DHT22;33316;52.298;9.056;2023-07-29T14:42:05;26.10;60.80
47590;DHT22;33316;52.298;9.056;2023-07-29T14:44:33;26.10;61.00
47590;DHT22;33316;52.298;9.056;2023-07-29T14:47:02;26.10;61.20
47590;DHT22;33316;52.298;9.056;2023-07-29T14:49:28;26.10;61.20
47590;DHT22;33316;52.298;9.056;2023-07-29T14:51:55;26.10;61.60
47590;DHT22;33316;52.298;9.056;2023-07-29T14:54:22;26.10;61.60
47590;DHT22;33316;52.298;9.056;2023-07-29T14:56:49;26.10;61.80
47590;DHT22;33316;52.298;9.056;2023-07-29T14:59:15;26.10;61.80
47590;DHT22;33316;52.298;9.056;2023-07-29T15:01:42;26.10;61.60
47590;DHT22;33316;52.298;9.056;2023-07-29T15:04:10;26.10;61.50
47590;DHT22;33316;52.298;9.056;2023-07-29T15:06:37;26.10;61.40
47590;DHT22;33316;52.298;9.056;2023-07-29T15:09:04;26.10;61.00
47590;DHT22;33316;52.298;9.056;2023-07-29T15:11:31;26.10;60.60
47590;DHT22;33316;52.298;9.056;2023-07-29T15:13:58;26.10;60.60
47590;DHT22;33316;52.298;9.056;2023-07-29T15:16:25;26.00;61.10
47590;DHT22;33316;52.298;9.056;2023-07-29T15:18:53;26.00;61.50
47590;DHT22;33316;52.298;9.056;2023-07-29T15:21:21;26.00;61.70
47590;DHT22;33316;52.298;9.056;2023-07-29T15:23:48;26.00;61.50
47590;DHT22;33316;52.298;9.056;2023-07-29T15:26:14;25.90;61.30
47590;DHT22;33316;52.298;9.056;2023-07-29T15:28:41;25.80;61.40
47590;DHT22;33316;52.298;9.056;2023-07-29T15:31:08;25.80;61.50
47590;DHT22;33316;52.298;9.056;2023-07-29T15:33:36;25.80;61.50
47590;DHT22;33316;52.298;9.056;2023-07-29T15:36:03;25.80;61.80